Time;durP1;ratioP1;P1;durP2;ratioP2;P2;SDS_P1;SDS_P2;PMS_P1;PMS_P2;Temp;Humidity;BMP_temperature;BMP_pressure;BME280_temperature;BME280_humidity;BME280_pressure;Samples;Min_cycle;Max_cycle;Signal;HPM_P1;HPM_P2
2022/08/15 00:00:59;;;;;;;6.72;4.80;;;;;;;-145.69;100.00;70328.00;5113851;28;20712;-76
2022/08/15 00:03:29;;;;;;;12.45;5.65;;;;;;;-145.69;100.00;70337.97;5113400;28;20552;-76
2022/08/15 00:05:58;;;;;;;7.90;5.18;;;;;;;-145.69;100.00;70335.97;5096983;28;20795;-76
2022/08/15 00:08:25;;;;;;;10.23;4.47;;;;;;;-145.69;100.00;70337.97;5093371;28;20678;-75
2022/08/15 00:10:53;;;;;;;9.73;5.00;;;;;;;-145.69;100.00;70339.94;5103876;28;20316;-76
2022/08/15 00:13:23;;;;;;;9.15;5.38;;;;;;;-145.69;100.00;70349.91;5113493;28;20201;-76
2022/08/15 00:15:54;;;;;;;8.85;5.28;;;;;;;-145.69;100.00;70351.88;5113965;28;20208;-75
2022/08/15 00:18:22;;;;;;;10.23;5.53;;;;;;;-145.69;100.00;70355.88;5113871;28;20204;-75
2022/08/15 00:20:49;;;;;;;6.30;4.65;;;;;;;-145.69;100.00;70355.88;5113730;28;20224;-77
2022/08/15 00:23:18;;;;;;;6.63;4.00;;;;;;;-145.69;100.00;70355.88;5099227;28;20549;-77
2022/08/15 00:25:46;;;;;;;6.50;4.20;;;;;;;-145.69;100.00;70347.91;5093129;28;20198;-77
2022/08/15 00:28:14;;;;;;;7.30;3.97;;;;;;;-145.69;100.00;70347.91;5093402;28;20201;-76
2022/08/15 00:30:43;;;;;;;6.80;4.07;;;;;;;-145.69;100.00;70343.94;5093200;28;20226;-76
2022/08/15 00:33:10;;;;;;;7.53;4.78;;;;;;;-145.69;100.00;70351.88;5093187;28;20204;-76
2022/08/15 00:35:36;;;;;;;6.93;4.43;;;;;;;-145.69;100.00;70363.81;5093211;28;20209;-76
2022/08/15 00:38:04;;;;;;;6.15;4.38;;;;;;;-145.69;100.00;70365.81;5112203;28;20204;-76
2022/08/15 00:41:38;;;;;;;6.55;4.60;;;;;;;-145.69;100.00;70363.81;5113685;28;20605;-77
2022/08/15 00:43:18;;;;;;;6.93;4.65;;;;;;;-145.69;100.00;70377.75;5113261;28;20197;-76
2022/08/15 00:45:47;;;;;;;8.40;4.85;;;;;;;-145.69;100.00;70383.72;5113500;28;20208;-76
2022/08/15 00:50:58;;;;;;;6.63;4.70;;;;;;;-145.69;100.00;70407.59;5099191;28;20301;-75
2022/08/15 00:53:26;;;;;;;8.35;4.72;;;;;;;-145.69;100.00;70403.59;5092915;28;20209;-76
2022/08/15 00:55:52;;;;;;;5.28;3.80;;;;;;;-145.69;100.00;70373.78;5093007;28;20201;-76
2022/08/15 00:58:20;;;;;;;7.28;4.60;;;;;;;-145.69;100.00;70367.81;5092945;28;20198;-75
2022/08/15 01:00:48;;;;;;;9.63;4.40;;;;;;;-145.69;100.00;70365.81;5103072;28;20243;-75
2022/08/15 01:03:18;;;;;;;6.50;4.10;;;;;;;-145.69;100.00;70363.81;5092218;28;20220;-77
2022/08/15 01:05:46;;;;;;;6.17;4.27;;;;;;;-145.69;100.00;70363.81;5112187;28;20446;-76
2022/08/15 01:08:14;;;;;;;9.38;4.40;;;;;;;-145.69;100.00;70353.88;5114751;28;20291;-77
2022/08/15 01:10:41;;;;;;;5.43;3.58;;;;;;;-145.69;100.00;70353.88;5117352;28;20228;-75
2022/08/15 01:13:08;;;;;;;7.18;4.10;;;;;;;-145.69;100.00;70353.88;5117364;28;20201;-77
2022/08/15 01:15:34;;;;;;;8.35;3.70;;;;;;;-145.69;100.00;70347.91;5105492;28;20201;-75
2022/08/15 01:18:02;;;;;;;8.90;4.30;;;;;;;-145.69;100.00;70347.91;5097028;28;20576;-77
2022/08/15 01:20:32;;;;;;;7.93;3.92;;;;;;;-145.69;100.00;70347.91;5096588;28;20664;-77
2022/08/15 01:23:09;;;;;;;6.55;4.20;;;;;;;-145.69;100.00;70365.81;5096757;28;20205;-76
2022/08/15 01:25:41;;;;;;;6.47;3.75;;;;;;;-145.69;100.00;70365.81;5096702;28;20221;-77
2022/08/15 01:28:12;;;;;;;9.00;3.88;;;;;;;-145.69;100.00;70369.78;5097489;28;20209;-77
2022/08/15 01:30:45;;;;;;;8.32;4.20;;;;;;;-145.69;100.00;70371.78;5116751;28;20218;-76
2022/08/15 01:33:13;;;;;;;8.63;4.57;;;;;;;-145.69;100.00;70373.78;5076496;28;20252;-77
2022/08/15 01:35:40;;;;;;;8.40;5.07;;;;;;;-145.69;100.00;70395.66;5076191;28;20237;-76
2022/08/15 01:38:19;;;;;;;6.20;4.15;;;;;;;-145.69;100.00;70405.59;5076168;28;20535;-77
2022/08/15 01:40:58;;;;;;;6.35;4.20;;;;;;;-145.69;100.00;70407.59;5087808;28;20258;-75
2022/08/15 01:43:27;;;;;;;9.07;4.93;;;;;;;-145.69;100.00;70401.63;5088692;28;20194;-77
2022/08/15 01:45:57;;;;;;;5.80;4.18;;;;;;;-145.69;100.00;70411.56;5076149;28;20210;-77
2022/08/15 01:48:28;;;;;;;8.23;4.20;;;;;;;-145.69;100.00;70417.53;5075832;28;20649;-77
2022/08/15 01:51:01;;;;;;;7.10;4.07;;;;;;;-145.69;100.00;70419.53;5075726;28;20224;-77
2022/08/15 01:53:32;;;;;;;7.43;4.68;;;;;;;-145.69;100.00;70419.53;5075994;28;20206;-77
2022/08/15 01:56:05;;;;;;;7.43;4.55;;;;;;;-145.69;100.00;70415.53;5083083;28;20198;-76
2022/08/15 01:58:36;;;;;;;6.75;4.38;;;;;;;-145.69;100.00;70415.53;5116412;28;20229;-77
2022/08/15 02:01:08;;;;;;;8.63;4.95;;;;;;;-145.69;100.00;70405.59;5116493;28;20205;-77
2022/08/15 02:03:36;;;;;;;7.85;4.70;;;;;;;-145.69;100.00;70405.59;5116272;28;20638;-77
2022/08/15 02:06:03;;;;;;;8.05;5.05;;;;;;;-145.69;100.00;70407.59;5116110;27;20248;-76
2022/08/15 02:08:30;;;;;;;7.45;4.53;;;;;;;-145.69;100.00;70401.63;5116280;28;20598;-76
2022/08/15 02:10:56;;;;;;;10.38;4.82;;;;;;;-145.69;100.00;70409.56;5102819;28;20225;-76
2022/08/15 02:13:25;;;;;;;12.48;4.50;;;;;;;-145.69;100.00;70411.56;5095791;28;20194;-78
2022/08/15 02:15:53;;;;;;;9.13;4.45;;;;;;;-145.69;100.00;70409.56;5095602;28;20587;-75
2022/08/15 02:18:19;;;;;;;6.93;4.70;;;;;;;-145.69;100.00;70411.56;5095589;28;20648;-77
2022/08/15 02:20:46;;;;;;;6.68;4.65;;;;;;;-145.69;100.00;70407.59;5094420;28;20207;-76
2022/08/15 02:23:12;;;;;;;10.43;4.50;;;;;;;-145.69;100.00;70409.56;5095859;28;20202;-77
2022/08/15 02:25:38;;;;;;;7.43;4.60;;;;;;;-145.69;100.00;70413.56;5115813;28;20647;-77
2022/08/15 02:28:05;;;;;;;9.02;4.85;;;;;;;-145.69;100.00;70419.53;5115941;28;20254;-76
2022/08/15 02:30:34;;;;;;;7.45;4.80;;;;;;;-145.69;100.00;70421.50;5115544;28;20201;-77
2022/08/15 02:33:01;;;;;;;9.35;4.97;;;;;;;-145.69;100.00;70435.44;5115938;28;20246;-77
2022/08/15 02:35:28;;;;;;;8.90;4.57;;;;;;;-145.69;100.00;70433.44;5115858;28;20204;-77
2022/08/15 02:37:54;;;;;;;9.05;4.90;;;;;;;-145.69;100.00;70431.47;5107202;28;20259;-76
2022/08/15 02:40:21;;;;;;;9.68;5.00;;;;;;;-145.69;100.00;70431.47;5095259;28;20590;-76
2022/08/15 02:42:47;;;;;;;11.98;5.00;;;;;;;-145.69;100.00;70431.47;5095115;28;20194;-77
2022/08/15 02:45:15;;;;;;;8.15;5.63;;;;;;;-145.69;100.00;70435.44;5095014;28;20205;-76
2022/08/15 02:47:44;;;;;;;11.00;4.90;;;;;;;-145.69;100.00;70443.41;5095246;28;20210;-76
2022/08/15 02:50:11;;;;;;;7.32;4.45;;;;;;;-145.69;100.00;70451.34;5095131;28;20297;-76
2022/08/15 02:52:39;;;;;;;11.88;4.90;;;;;;;-145.69;100.00;70453.34;5112387;28;20228;-77
2022/08/15 02:55:07;;;;;;;9.48;5.78;;;;;;;-145.69;100.00;70455.34;5114614;28;20430;-76
2022/08/15 02:57:34;;;;;;;8.25;4.57;;;;;;;-145.69;100.00;70451.34;5115048;28;20683;-76
2022/08/15 03:00:01;;;;;;;8.23;5.00;;;;;;;-145.69;100.00;70455.34;5115350;28;20228;-76
2022/08/15 03:02:28;;;;;;;8.60;3.50;;;;;;;-145.69;100.00;70437.44;5115255;28;20211;-77
2022/08/15 03:04:55;;;;;;;7.72;3.30;;;;;;;-145.69;100.00;70429.47;5107988;28;20249;-77
2022/08/15 03:07:22;;;;;;;5.53;3.25;;;;;;;-145.69;100.00;70411.56;5094478;28;20205;-77
2022/08/15 03:09:48;;;;;;;5.80;2.65;;;;;;;-145.69;100.00;70407.59;5094650;28;20198;-77
2022/08/15 03:12:15;;;;;;;5.38;2.80;;;;;;;-145.69;100.00;70403.59;5094322;28;20234;-76
2022/08/15 03:14:42;;;;;;;5.00;2.80;;;;;;;-145.69;100.00;70399.63;5094600;28;20210;-75
2022/08/15 03:17:09;;;;;;;5.65;2.72;;;;;;;-145.69;100.00;70401.63;5093920;28;20240;-77
2022/08/15 03:19:37;;;;;;;5.05;3.13;;;;;;;-145.69;100.00;70411.56;5108269;28;20655;-77
2022/08/15 03:22:05;;;;;;;5.95;2.55;;;;;;;-145.69;100.00;70411.56;5114746;28;20239;-77
2022/08/15 03:24:32;;;;;;;5.05;3.58;;;;;;;-145.69;100.00;70411.56;5114691;28;20204;-77
2022/08/15 03:26:59;;;;;;;6.10;2.65;;;;;;;-145.69;100.00;70405.59;5114517;28;20201;-74
2022/08/15 03:29:27;;;;;;;4.88;3.30;;;;;;;-145.69;100.00;70407.59;5114517;28;20233;-78
2022/08/15 03:31:53;;;;;;;4.88;3.22;;;;;;;-145.69;100.00;70415.53;5111101;28;20461;-75
2022/08/15 03:34:22;;;;;;;5.03;3.20;;;;;;;-145.69;100.00;70427.47;5094186;28;20198;-76
2022/08/15 03:36:49;;;;;;;5.28;3.40;;;;;;;-145.69;100.00;70433.44;5093877;28;20660;-76
2022/08/15 03:39:17;;;;;;;4.20;3.00;;;;;;;-145.69;100.00;70439.41;5093994;28;20202;-76
2022/08/15 03:41:44;;;;;;;5.22;3.10;;;;;;;-145.69;100.00;70455.34;5101205;28;20205;-76
2022/08/15 03:44:11;;;;;;;6.43;3.80;;;;;;;-145.69;100.00;70451.34;5075915;28;20214;-75
2022/08/15 03:46:37;;;;;;;4.60;3.10;;;;;;;-145.69;100.00;70453.34;5073578;28;20674;-75
2022/08/15 03:49:04;;;;;;;6.47;3.28;;;;;;;-145.69;100.00;70453.34;5073683;28;20199;-77
2022/08/15 03:51:31;;;;;;;7.20;3.60;;;;;;;-145.69;100.00;70449.38;5073532;28;20230;-77
2022/08/15 03:54:00;;;;;;;5.72;3.00;;;;;;;-145.69;100.00;70451.34;5098677;28;20198;-77
2022/08/15 03:56:30;;;;;;;6.72;3.25;;;;;;;-145.69;100.00;70455.34;5114054;28;20284;-76
2022/08/15 03:58:58;;;;;;;5.20;2.88;;;;;;;-145.69;100.00;70459.31;5114215;28;20206;-75
2022/08/15 04:01:26;;;;;;;3.92;2.88;;;;;;;-145.69;100.00;70473.22;5114128;28;20246;-75
2022/08/15 04:03:53;;;;;;;5.60;3.30;;;;;;;-145.69;100.00;70475.22;5113737;28;20681;-75
2022/08/15 04:06:22;;;;;;;6.95;3.65;;;;;;;-145.69;100.00;70477.22;5113581;28;20204;-77
2022/08/15 04:08:50;;;;;;;4.60;3.70;;;;;;;-145.69;100.00;70481.19;5073466;28;20286;-75
2022/08/15 04:11:19;;;;;;;5.28;3.00;;;;;;;-145.69;100.00;70485.16;5073251;28;20225;-75
2022/08/15 04:13:48;;;;;;;3.88;2.83;;;;;;;-145.69;100.00;70487.16;5073235;28;20202;-74
2022/08/15 04:16:16;;;;;;;6.63;3.00;;;;;;;-145.69;100.00;70463.28;5073282;28;20546;-77
2022/08/15 04:18:43;;;;;;;4.80;2.30;;;;;;;-145.69;100.00;70455.34;5073236;28;20202;-77
2022/08/15 04:21:12;;;;;;;3.78;2.38;;;;;;;-145.69;100.00;70449.38;5084615;28;20201;-75
2022/08/15 04:23:39;;;;;;;3.47;2.75;;;;;;;-145.69;100.00;70451.34;5113784;28;20232;-76
2022/08/15 04:26:06;;;;;;;5.28;2.78;;;;;;;-145.69;100.00;70463.28;5113732;28;20205;-76
2022/08/15 04:28:32;;;;;;;6.18;3.35;;;;;;;-145.69;100.00;70467.28;5113656;28;20201;-75
2022/08/15 04:31:04;;;;;;;5.63;3.25;;;;;;;-145.69;100.00;70489.16;5113478;28;20648;-76
2022/08/15 04:33:32;;;;;;;13.10;3.40;;;;;;;-145.69;100.00;70493.13;5113506;28;20205;-75
2022/08/15 04:36:00;;;;;;;8.18;3.13;;;;;;;-145.69;100.00;70485.16;5101118;28;20194;-75
2022/08/15 04:38:27;;;;;;;4.53;2.63;;;;;;;-145.69;100.00;70483.19;5093107;28;20256;-76
2022/08/15 04:40:55;;;;;;;2.85;2.53;;;;;;;-145.69;100.00;70483.19;5093203;28;20241;-76
2022/08/15 04:43:23;;;;;;;4.70;2.50;;;;;;;-145.69;100.00;70483.19;5092435;28;20202;-77
2022/08/15 04:45:51;;;;;;;4.85;2.53;;;;;;;-145.69;100.00;70467.28;5093078;28;20202;-75
2022/08/15 04:48:22;;;;;;;2.55;2.05;;;;;;;-145.69;100.00;70465.28;5092993;28;20202;-77
2022/08/15 04:50:50;;;;;;;8.45;2.40;;;;;;;-145.69;100.00;70473.22;5111908;28;20208;-78
2022/08/15 04:53:18;;;;;;;4.97;2.60;;;;;;;-145.69;100.00;70469.25;5113452;28;20224;-77
2022/08/15 04:55:45;;;;;;;4.65;2.35;;;;;;;-145.69;100.00;70461.31;5113225;28;20208;-77
2022/08/15 04:58:13;;;;;;;7.40;2.70;;;;;;;-145.69;100.00;70451.34;5113317;28;20201;-77
2022/08/15 05:00:44;;;;;;;5.93;2.78;;;;;;;-145.69;100.00;70433.44;5113117;28;20205;-77
2022/08/15 05:03:14;;;;;;;5.00;2.17;;;;;;;-145.69;100.00;70423.50;5105988;28;20198;-76
2022/08/15 05:05:45;;;;;;;3.67;2.38;;;;;;;-145.69;100.00;70411.56;5092742;28;20279;-77
2022/08/15 05:08:12;;;;;;;4.88;2.97;;;;;;;-145.69;100.00;70409.56;5092811;28;20285;-76
2022/08/15 05:10:39;;;;;;;4.18;2.28;;;;;;;-145.69;100.00;70415.53;5092793;28;20579;-75
2022/08/15 05:13:11;;;;;;;5.40;2.50;;;;;;;-145.69;100.00;70419.53;5092669;28;20230;-79
2022/08/15 05:15:37;;;;;;;5.35;2.42;;;;;;;-145.69;100.00;70419.53;5092986;28;20202;-78
2022/08/15 05:18:04;;;;;;;3.78;2.30;;;;;;;-145.69;100.00;70417.53;5105750;28;20678;-77
2022/08/15 05:20:30;;;;;;;4.43;2.17;;;;;;;-145.69;100.00;70423.50;5113017;28;20206;-77
2022/08/15 05:23:00;;;;;;;3.60;2.55;;;;;;;-145.69;100.00;70425.50;5112990;28;20241;-76
2022/08/15 05:25:27;;;;;;;8.27;2.22;;;;;;;-145.69;100.00;70431.47;5112905;28;20197;-76
2022/08/15 05:27:54;;;;;;;5.72;2.30;;;;;;;-145.69;100.00;70443.41;5113247;28;20193;-76
2022/08/15 05:30:21;;;;;;;5.55;2.08;;;;;;;-145.69;100.00;70447.38;5110856;28;20209;-76
2022/08/15 05:32:48;;;;;;;3.75;2.20;;;;;;;-145.69;100.00;70453.34;5092708;28;20229;-76
2022/08/15 05:35:15;;;;;;;3.45;2.10;;;;;;;-145.69;100.00;70459.31;5092684;28;20233;-76
2022/08/15 05:37:44;;;;;;;7.35;2.90;;;;;;;-145.69;100.00;70443.41;5092534;28;20198;-77
2022/08/15 05:40:13;;;;;;;2.70;1.92;;;;;;;-145.69;100.00;70427.47;5092439;28;20198;-78
2022/08/15 05:42:47;;;;;;;5.97;2.08;;;;;;;-145.69;100.00;70407.59;5092585;28;20194;-77
2022/08/15 05:45:24;;;;;;;3.70;1.90;;;;;;;-145.69;100.00;70383.72;5104147;28;20203;-76
2022/08/15 05:48:00;;;;;;;3.78;2.05;;;;;;;-145.69;100.00;70361.84;5112739;28;20720;-75
2022/08/15 05:50:31;;;;;;;4.32;2.03;;;;;;;-145.69;100.00;70316.06;5089754;28;20199;-77
2022/08/15 05:53:06;;;;;;;7.40;2.10;;;;;;;-145.69;100.00;70286.25;5072385;28;20277;-76
2022/08/15 05:55:40;;;;;;;5.15;1.90;;;;;;;-145.69;100.00;70248.44;5075463;28;20199;-77
2022/08/15 05:58:34;;;;;;;2.78;1.92;;;;;;;-145.69;100.00;70210.66;5080743;28;20229;-77
2022/08/15 06:01:06;;;;;;;5.40;1.90;;;;;;;-145.69;100.00;70194.72;5100915;28;20210;-77
2022/08/15 06:03:37;;;;;;;4.45;1.70;;;;;;;-145.69;99.58;70184.78;5095886;28;20201;-77
2022/08/15 06:06:10;;;;;;;2.60;1.30;;;;;;;-145.69;91.77;70152.97;5095761;28;20222;-77
2022/08/15 06:08:44;;;;;;;2.10;1.50;;;;;;;-145.69;91.88;70141.03;5095917;28;20587;-76
2022/08/15 06:11:15;;;;;;;4.45;1.70;;;;;;;-145.69;94.93;70123.13;5095858;28;20209;-76
2022/08/15 06:13:46;;;;;;;1.98;1.10;;;;;;;-145.69;91.95;70087.31;5114281;28;20224;-76
2022/08/15 06:16:20;;;;;;;1.98;1.55;;;;;;;-145.69;91.62;70111.19;5116283;28;20224;-77
2022/08/15 06:18:47;;;;;;;3.33;1.60;;;;;;;-145.69;87.28;70113.16;5116173;28;20197;-76
2022/08/15 06:21:27;;;;;;;1.67;1.33;;;;;;;-145.69;88.63;70121.13;5115804;28;20297;-77
2022/08/15 06:24:02;;;;;;;2.47;1.27;;;;;;;-145.69;85.19;70125.09;5115941;28;20201;-76
2022/08/15 06:26:42;;;;;;;2.75;1.52;;;;;;;-145.69;89.11;70137.03;5108299;28;20197;-77
2022/08/15 06:29:40;;;;;;;3.88;1.60;;;;;;;-145.69;87.59;70117.16;5095519;28;20201;-77
2022/08/15 06:32:11;;;;;;;5.13;1.30;;;;;;;-145.69;87.96;70107.19;5095185;28;20695;-76
2022/08/15 06:34:46;;;;;;;4.32;1.35;;;;;;;-145.69;84.57;70101.25;5095660;28;20211;-76
2022/08/15 06:37:21;;;;;;;5.03;1.30;;;;;;;-145.69;84.48;70089.31;5095551;28;20299;-78
2022/08/15 06:40:03;;;;;;;2.08;1.23;;;;;;;-145.69;84.87;70063.44;5095280;28;20205;-76
2022/08/15 06:42:35;;;;;;;3.22;1.30;;;;;;;-145.69;83.06;70051.50;5075010;28;20198;-78
2022/08/15 06:45:08;;;;;;;2.72;1.27;;;;;;;-145.69;76.26;70035.59;5075192;28;20546;-78
2022/08/15 06:47:36;;;;;;;3.83;1.40;;;;;;;-145.69;76.98;70011.72;5075066;28;20206;-76
2022/08/15 06:50:12;;;;;;;2.03;1.27;;;;;;;-145.69;73.70;70005.75;5074915;28;20550;-77
2022/08/15 06:52:40;;;;;;;1.70;1.20;;;;;;;-145.69;74.56;69993.81;5074703;28;20277;-78
2022/08/15 06:55:08;;;;;;;1.63;1.10;;;;;;;-145.69;67.30;69977.91;5093770;28;20209;-79
2022/08/15 06:57:45;;;;;;;1.83;1.08;;;;;;;-145.69;65.78;69965.97;5115272;28;20221;-76
2022/08/15 07:00:19;;;;;;;1.30;0.93;;;;;;;-145.69;66.58;69954.03;5115164;28;20659;-76
2022/08/15 07:02:57;;;;;;;3.60;1.20;;;;;;;-145.69;65.17;69938.13;5115426;28;20208;-76
2022/08/15 07:05:30;;;;;;;1.20;1.10;;;;;;;-145.69;63.93;69944.09;5114258;28;20232;-76
2022/08/15 07:08:03;;;;;;;1.70;1.10;;;;;;;-145.69;62.84;69934.16;5113238;28;20209;-76
2022/08/15 07:10:35;;;;;;;2.45;1.20;;;;;;;-145.69;59.25;69942.09;5094712;28;20202;-76
2022/08/15 07:13:07;;;;;;;1.13;1.00;;;;;;;-145.69;59.01;69934.16;5092090;28;20260;-76
2022/08/15 07:15:46;;;;;;;3.63;1.30;;;;;;;-145.69;60.92;69916.25;5094426;28;20217;-76
2022/08/15 07:18:19;;;;;;;1.65;1.33;;;;;;;-145.69;58.18;69934.16;5094424;28;20209;-76
2022/08/15 07:20:46;;;;;;;3.20;1.20;;;;;;;-145.69;61.51;69934.16;5093548;28;20440;-77
2022/08/15 07:23:19;;;;;;;1.92;1.30;;;;;;;-145.69;61.13;69918.22;5107401;28;20201;-77
2022/08/15 07:25:47;;;;;;;2.55;1.20;;;;;;;-145.69;63.46;69912.25;5114779;28;20226;-75
2022/08/15 07:28:18;;;;;;;2.45;1.27;;;;;;;-145.69;62.98;69886.41;5114719;28;20200;-75
2022/08/15 07:30:48;;;;;;;2.13;1.23;;;;;;;-145.69;60.65;69910.28;5114241;28;20298;-77
2022/08/15 07:33:37;;;;;;;1.55;1.10;;;;;;;-145.69;61.45;69916.25;5114608;28;20224;-75
2022/08/15 07:36:09;;;;;;;2.78;1.50;;;;;;;-145.69;59.42;69916.25;5107984;28;20652;-78
2022/08/15 07:38:35;;;;;;;1.33;1.10;;;;;;;-145.69;60.14;69908.28;5094200;28;20202;-76
2022/08/15 07:41:21;;;;;;;3.50;1.05;;;;;;;-145.69;59.05;69906.28;5093865;28;20198;-75
2022/08/15 07:43:51;;;;;;;2.60;1.10;;;;;;;-145.69;60.78;69916.25;5093667;28;20255;-75
2022/08/15 07:46:20;;;;;;;2.67;1.52;;;;;;;-145.69;60.65;69892.38;5092935;28;20223;-76
2022/08/15 07:48:58;;;;;;;1.95;1.27;;;;;;;-145.69;61.26;69894.38;5091475;28;20591;-76
2022/08/15 07:51:27;;;;;;;6.03;1.23;;;;;;;-145.69;61.71;69866.50;5110086;28;20704;-76
2022/08/15 07:53:58;;;;;;;2.47;1.30;;;;;;;-145.69;59.59;69866.50;5114308;28;20579;-76
2022/08/15 07:56:25;;;;;;;2.75;1.20;;;;;;;-145.69;61.29;69866.50;5114236;28;20201;-78
2022/08/15 07:58:57;;;;;;;1.60;1.17;;;;;;;-145.69;61.42;69894.38;5114142;28;20292;-78
2022/08/15 08:01:28;;;;;;;1.50;1.30;;;;;;;-145.69;65.37;69858.56;5113980;28;20208;-77
2022/08/15 08:03:58;;;;;;;5.38;1.33;;;;;;;-145.69;61.49;69874.47;5109800;28;20668;-76
2022/08/15 08:06:32;;;;;;;3.00;1.17;;;;;;;-145.69;61.04;69858.56;5085220;28;20199;-75
2022/08/15 08:09:07;;;;;;;1.13;1.00;;;;;;;-145.69;59.66;69862.53;5072199;28;20199;-75
2022/08/15 08:11:46;;;;;;;2.22;1.33;;;;;;;-145.69;60.91;69852.59;5072935;28;20202;-76
2022/08/15 08:14:24;;;;;;;4.85;1.30;;;;;;;-145.69;59.42;69840.66;5073049;28;20229;-74
2022/08/15 08:16:55;;;;;;;1.48;1.10;;;;;;;-145.69;59.23;69870.50;5074596;28;20202;-77
2022/08/15 08:19:33;;;;;;;1.38;1.02;;;;;;;-145.69;61.57;69846.63;5113928;28;20204;-76
2022/08/15 08:22:06;;;;;;;2.35;1.20;;;;;;;-145.69;60.70;69848.63;5113807;28;20433;-74
2022/08/15 08:24:51;;;;;;;1.85;1.30;;;;;;;-145.69;61.31;69858.56;5111687;28;20201;-76
2022/08/15 08:27:29;;;;;;;4.75;1.33;;;;;;;-145.69;61.11;69866.50;5111885;28;20197;-78
2022/08/15 08:30:03;;;;;;;1.67;1.55;;;;;;;-145.69;59.46;69850.59;5111743;28;20197;-77
2022/08/15 08:32:40;;;;;;;1.70;1.40;;;;;;;-145.69;59.64;69878.44;5095856;27;20249;-76
2022/08/15 08:35:16;;;;;;;2.70;1.45;;;;;;;-145.69;62.01;69852.59;5091133;28;20201;-76
2022/08/15 08:37:49;;;;;;;1.88;1.30;;;;;;;-145.69;62.89;69838.66;5091940;28;20247;-76
2022/08/15 08:43:17;;;;;;;1.98;1.30;;;;;;;-145.69;62.64;69822.75;5093109;28;20558;-76
2022/08/15 08:45:52;;;;;;;2.90;1.60;;;;;;;-145.69;59.44;69822.75;5100393;28;20224;-75
2022/08/15 08:48:33;;;;;;;3.33;1.45;;;;;;;-145.69;60.87;69792.91;5113349;28;20654;-75
2022/08/15 08:51:06;;;;;;;3.80;1.52;;;;;;;-145.69;58.66;69806.84;5113578;28;20193;-75
2022/08/15 08:53:44;;;;;;;3.67;1.65;;;;;;;-145.69;60.47;69850.59;5113345;28;20228;-77
2022/08/15 08:56:16;;;;;;;2.17;1.60;;;;;;;-145.69;61.95;69804.84;5113534;28;20211;-76
2022/08/15 08:58:47;;;;;;;3.33;1.63;;;;;;;-145.69;59.49;69782.97;5113492;28;20204;-76
2022/08/15 09:01:19;;;;;;;5.40;1.48;;;;;;;-145.69;58.12;69743.19;5094466;28;20197;-76
2022/08/15 09:03:49;;;;;;;3.15;1.67;;;;;;;-145.69;56.03;69759.09;5092970;28;20201;-78
2022/08/15 09:06:21;;;;;;;2.28;1.30;;;;;;;-145.69;57.13;69771.03;5092768;28;20568;-77
2022/08/15 09:08:52;;;;;;;2.45;1.70;;;;;;;-145.69;57.81;69751.16;5092856;28;20244;-76
2022/08/15 09:11:22;;;;;;;1.80;1.42;;;;;;;-145.69;57.04;69759.09;5092948;28;20285;-77
2022/08/15 09:13:50;;;;;;;1.83;1.40;;;;;;;-145.69;58.93;69741.19;5100096;28;20225;-76
2022/08/15 09:16:22;;;;;;;1.85;1.40;;;;;;;-145.69;57.73;69731.25;5113132;28;20197;-76
2022/08/15 09:18:56;;;;;;;1.83;1.15;;;;;;;-145.69;58.55;69755.13;5113179;28;20209;-76
2022/08/15 09:21:22;;;;;;;2.53;1.70;;;;;;;-145.69;60.91;69713.34;5113332;28;20597;-76
2022/08/15 09:23:50;;;;;;;2.13;1.60;;;;;;;-145.69;57.64;69695.47;5113224;28;20203;-76
2022/08/15 09:26:24;;;;;;;3.00;1.63;;;;;;;-145.69;55.30;69713.34;5113099;28;20205;-76
2022/08/15 09:29:07;;;;;;;3.40;1.73;;;;;;;-145.69;56.00;69707.38;5098440;28;20197;-78
2022/08/15 09:31:39;;;;;;;1.60;1.50;;;;;;;-145.69;56.92;69707.38;5096583;28;20206;-75
2022/08/15 09:34:39;;;;;;;2.95;1.60;;;;;;;-145.69;57.78;69699.44;5096563;28;20230;-77
2022/08/15 09:37:24;;;;;;;2.40;1.70;;;;;;;-145.69;53.20;69663.63;5082891;28;20206;-77
2022/08/15 09:40:21;;;;;;;3.47;1.52;;;;;;;-145.69;55.88;69669.59;5096322;28;20564;-76
2022/08/15 09:43:09;;;;;;;2.42;1.50;;;;;;;-145.69;54.09;69679.53;5108769;28;20220;-76
2022/08/15 09:45:52;;;;;;;3.00;1.80;;;;;;;-145.69;54.74;69619.88;5116725;27;20197;-77
2022/08/15 09:48:37;;;;;;;3.13;1.75;;;;;;;-145.69;53.61;69627.84;5117003;28;20197;-77
2022/08/15 09:51:14;;;;;;;4.30;2.13;;;;;;;-145.69;51.90;69603.97;5116739;28;20262;-76
2022/08/15 09:54:03;;;;;;;2.30;1.65;;;;;;;-145.69;52.33;69592.03;5116587;28;20314;-75
2022/08/15 09:56:33;;;;;;;4.40;1.95;;;;;;;-145.69;52.30;69582.09;5096225;28;20194;-79
2022/08/15 09:59:09;;;;;;;2.30;1.73;;;;;;;-145.69;49.76;69599.97;5096196;28;20229;-77
2022/08/15 10:01:43;;;;;;;3.35;1.85;;;;;;;-145.69;50.78;69609.94;5096076;28;20193;-77
2022/08/15 10:04:14;;;;;;;7.25;1.92;;;;;;;-145.69;51.49;69560.22;5099945;28;20311;-76
2022/08/15 10:07:33;;;;;;;3.47;1.70;;;;;;;-145.69;49.47;69568.16;5114516;28;20671;-76
2022/08/15 10:10:17;;;;;;;5.28;1.92;;;;;;;-145.69;50.16;69488.59;5116149;28;20201;-76
2022/08/15 10:13:13;;;;;;;5.95;2.05;;;;;;;-145.69;46.54;69480.66;5116183;28;20257;-76
2022/08/15 10:15:43;;;;;;;4.63;1.83;;;;;;;-145.69;49.36;69472.69;5116315;28;20204;-76
2022/08/15 10:18:10;;;;;;;4.13;2.30;;;;;;;-145.69;47.61;69484.63;5101809;28;20199;-77
2022/08/15 10:21:02;;;;;;;3.63;2.10;;;;;;;-145.69;48.67;69492.59;5095727;28;20202;-76
2022/08/15 10:23:42;;;;;;;3.08;2.10;;;;;;;-145.69;46.32;69482.63;5095542;28;20616;-76
2022/08/15 10:26:19;;;;;;;4.47;2.10;;;;;;;-145.69;51.19;69401.09;5095752;28;20198;-76
2022/08/15 10:29:00;;;;;;;3.40;2.25;;;;;;;-145.69;48.32;69351.38;5095480;28;20679;-75
2022/08/15 10:31:28;;;;;;;4.85;1.98;;;;;;;-145.69;46.49;69345.41;5106939;28;20194;-76
2022/08/15 10:34:00;;;;;;;3.95;1.60;;;;;;;-145.69;47.14;69273.81;5115329;28;20225;-75
2022/08/15 10:36:31;;;;;;;4.47;1.75;;;;;;;-145.69;44.99;69243.97;5115588;28;20852;-76
2022/08/15 10:39:12;;;;;;;5.82;2.00;;;;;;;-145.69;43.69;69269.81;5115848;27;20227;-75
2022/08/15 10:41:53;;;;;;;4.82;2.08;;;;;;;-145.69;44.72;69345.41;5114583;28;20193;-76
2022/08/15 10:44:28;;;;;;;5.95;2.05;;;;;;;-145.69;43.82;69323.53;5113823;28;20204;-77
2022/08/15 10:47:13;;;;;;;3.25;2.00;;;;;;;-145.69;42.43;69251.94;5095714;28;20202;-76
2022/08/15 10:49:49;;;;;;;5.15;2.05;;;;;;;-145.69;43.15;69287.72;5095393;28;20194;-75
2022/08/15 10:52:29;;;;;;;2.88;1.88;;;;;;;-145.69;44.51;69309.59;5095134;28;20206;-75
2022/08/15 10:55:12;;;;;;;4.43;1.77;;;;;;;-145.69;44.52;69373.25;5094792;28;20287;-76
2022/08/15 10:57:47;;;;;;;7.05;2.28;;;;;;;-145.69;45.28;69355.34;5095129;28;20233;-76
2022/08/15 11:00:17;;;;;;;3.92;2.10;;;;;;;-145.69;44.14;69317.56;5111587;28;20439;-76
2022/08/15 11:02:48;;;;;;;5.18;2.00;;;;;;;-145.69;43.26;69337.44;5115205;28;20206;-76
2022/08/15 11:05:19;;;;;;;2.58;1.80;;;;;;;-145.69;43.18;69347.41;5114729;28;20233;-77
2022/08/15 11:07:49;;;;;;;4.68;1.98;;;;;;;-145.69;44.53;69401.09;5112525;28;20603;-77
2022/08/15 11:10:20;;;;;;;3.63;1.98;;;;;;;-145.69;46.38;69417.00;5094464;28;20205;-76
2022/08/15 11:12:50;;;;;;;5.00;2.30;;;;;;;-145.69;45.79;69428.94;5094598;28;20194;-76
2022/08/15 11:15:22;;;;;;;3.47;2.10;;;;;;;-145.69;46.35;69464.75;5094520;28;20232;-76
2022/08/15 11:17:54;;;;;;;7.15;2.10;;;;;;;-145.69;45.91;69452.81;5094337;28;20210;-76
2022/08/15 11:20:26;;;;;;;2.13;1.88;;;;;;;-145.69;45.06;69448.81;5101472;28;20190;-76
2022/08/15 11:22:55;;;;;;;5.50;2.05;;;;;;;-145.69;45.86;69399.09;5114861;28;20205;-75
2022/08/15 11:25:27;;;;;;;3.55;2.10;;;;;;;-145.69;45.30;69371.25;5114760;28;20202;-76
2022/08/15 11:28:03;;;;;;;5.10;2.28;;;;;;;-145.69;44.66;69347.41;5114688;28;20202;-76
2022/08/15 11:30:32;;;;;;;4.53;1.88;;;;;;;-145.69;44.42;69345.41;5114966;28;20197;-76
2022/08/15 11:33:18;;;;;;;4.55;2.05;;;;;;;-145.69;43.44;69325.53;5114756;28;20705;-75
2022/08/15 11:35:45;;;;;;;2.97;1.70;;;;;;;-145.69;44.04;69333.47;5096840;28;20441;-76
2022/08/15 11:38:16;;;;;;;4.18;2.00;;;;;;;-145.69;44.67;69333.47;5094243;28;20206;-75